sensor_id;sensor_type;location;lat;lon;timestamp;P1;durP1;ratioP1;P2;durP2;ratioP2
11618;SDS011;5865;48.776;9.280;2024-03-23T00:53:33;6.40;;;4.10;;
11618;SDS011;5865;48.776;9.280;2024-03-23T00:56:00;6.27;;;4.23;;
11618;SDS011;5865;48.776;9.280;2024-03-23T00:58:27;6.03;;;3.87;;
11618;SDS011;5865;48.776;9.280;2024-03-23T01:00:54;4.90;;;4.00;;
11618;SDS011;5865;48.776;9.280;2024-03-23T01:03:20;5.07;;;3.70;;
11618;SDS011;5865;48.776;9.280;2024-03-23T01:05:47;6.47;;;4.10;;
11618;SDS011;5865;48.776;9.280;2024-03-23T01:08:13;5.23;;;4.00;;
11618;SDS011;5865;48.776;9.280;2024-03-23T01:10:42;7.23;;;4.43;;
11618;SDS011;5865;48.776;9.280;2024-03-23T01:13:08;7.53;;;4.13;;
11618;SDS011;5865;48.776;9.280;2024-03-23T01:15:35;5.30;;;4.00;;
11618;SDS011;5865;48.776;9.280;2024-03-23T01:18:02;6.60;;;4.30;;
11618;SDS011;5865;48.776;9.280;2024-03-23T01:20:29;6.57;;;4.93;;
11618;SDS011;5865;48.776;9.280;2024-03-23T01:22:56;7.10;;;4.47;;
11618;SDS011;5865;48.776;9.280;2024-03-23T01:25:23;6.90;;;4.50;;
11618;SDS011;5865;48.776;9.280;2024-03-23T01:27:50;7.77;;;4.43;;
11618;SDS011;5865;48.776;9.280;2024-03-23T01:30:17;4.87;;;4.03;;
11618;SDS011;5865;48.776;9.280;2024-03-23T01:32:43;6.40;;;4.50;;
11618;SDS011;5865;48.776;9.280;2024-03-23T01:35:10;5.50;;;4.37;;
11618;SDS011;5865;48.776;9.280;2024-03-23T01:37:36;5.37;;;4.13;;
11618;SDS011;5865;48.776;9.280;2024-03-23T01:40:04;6.07;;;4.60;;
11618;SDS011;5865;48.776;9.280;2024-03-23T01:42:30;7.07;;;4.23;;
11618;SDS011;5865;48.776;9.280;2024-03-23T01:44:59;4.93;;;4.00;;
11618;SDS011;5865;48.776;9.280;2024-03-23T01:47:25;4.10;;;3.70;;
11618;SDS011;5865;48.776;9.280;2024-03-23T01:49:52;5.23;;;3.80;;
11618;SDS011;5865;48.776;9.280;2024-03-23T01:52:18;4.07;;;3.37;;
11618;SDS011;5865;48.776;9.280;2024-03-23T01:54:46;5.53;;;3.50;;
11618;SDS011;5865;48.776;9.280;2024-03-23T01:57:12;4.00;;;3.10;;
11618;SDS011;5865;48.776;9.280;2024-03-23T01:59:39;3.73;;;2.87;;
11618;SDS011;5865;48.776;9.280;2024-03-23T02:02:09;3.97;;;3.50;;
11618;SDS011;5865;48.776;9.280;2024-03-23T02:04:36;3.87;;;3.20;;
11618;SDS011;5865;48.776;9.280;2024-03-23T02:07:02;4.00;;;3.00;;
11618;SDS011;5865;48.776;9.280;2024-03-23T02:09:30;5.50;;;2.70;;
11618;SDS011;5865;48.776;9.280;2024-03-23T02:11:57;3.93;;;2.47;;
11618;SDS011;5865;48.776;9.280;2024-03-23T02:14:24;2.40;;;2.20;;
11618;SDS011;5865;48.776;9.280;2024-03-23T02:16:50;4.03;;;2.53;;
11618;SDS011;5865;48.776;9.280;2024-03-23T02:19:18;3.27;;;2.37;;
11618;SDS011;5865;48.776;9.280;2024-03-23T02:21:45;2.30;;;2.07;;
11618;SDS011;5865;48.776;9.280;2024-03-23T02:24:14;2.37;;;2.10;;
11618;SDS011;5865;48.776;9.280;2024-03-23T02:26:40;3.17;;;2.47;;
11618;SDS011;5865;48.776;9.280;2024-03-23T02:29:07;3.50;;;2.70;;
11618;SDS011;5865;48.776;9.280;2024-03-23T02:31:34;3.40;;;2.37;;
11618;SDS011;5865;48.776;9.280;2024-03-23T02:34:01;4.53;;;2.30;;
11618;SDS011;5865;48.776;9.280;2024-03-23T02:36:28;3.43;;;2.20;;
11618;SDS011;5865;48.776;9.280;2024-03-23T02:38:56;3.80;;;2.50;;
11618;SDS011;5865;48.776;9.280;2024-03-23T02:41:23;3.30;;;2.30;;
11618;SDS011;5865;48.776;9.280;2024-03-23T02:43:50;5.23;;;2.60;;
11618;SDS011;5865;48.776;9.280;2024-03-23T02:46:16;3.57;;;2.40;;
11618;SDS011;5865;48.776;9.280;2024-03-23T02:48:43;2.90;;;2.30;;
11618;SDS011;5865;48.776;9.280;2024-03-23T02:51:10;3.67;;;2.50;;
11618;SDS011;5865;48.776;9.280;2024-03-23T02:53:37;5.83;;;2.50;;
11618;SDS011;5865;48.776;9.280;2024-03-23T02:56:03;3.43;;;2.30;;
11618;SDS011;5865;48.776;9.280;2024-03-23T02:58:32;3.07;;;2.30;;
11618;SDS011;5865;48.776;9.280;2024-03-23T03:00:58;2.60;;;1.93;;
11618;SDS011;5865;48.776;9.280;2024-03-23T03:03:25;4.13;;;2.30;;
11618;SDS011;5865;48.776;9.280;2024-03-23T03:05:54;2.90;;;2.27;;
11618;SDS011;5865;48.776;9.280;2024-03-23T03:08:22;2.87;;;2.37;;
11618;SDS011;5865;48.776;9.280;2024-03-23T03:10:48;3.47;;;2.30;;
11618;SDS011;5865;48.776;9.280;2024-03-23T03:13:15;3.40;;;2.40;;
11618;SDS011;5865;48.776;9.280;2024-03-23T03:15:42;3.30;;;2.33;;
11618;SDS011;5865;48.776;9.280;2024-03-23T03:18:10;3.50;;;2.37;;
11618;SDS011;5865;48.776;9.280;2024-03-23T03:20:37;2.73;;;2.40;;
11618;SDS011;5865;48.776;9.280;2024-03-23T03:23:05;3.43;;;2.23;;
11618;SDS011;5865;48.776;9.280;2024-03-23T03:25:31;3.17;;;2.10;;
11618;SDS011;5865;48.776;9.280;2024-03-23T03:27:58;4.67;;;2.13;;
11618;SDS011;5865;48.776;9.280;2024-03-23T03:30:25;3.27;;;1.93;;
11618;SDS011;5865;48.776;9.280;2024-03-23T03:32:53;3.50;;;2.50;;
11618;SDS011;5865;48.776;9.280;2024-03-23T03:35:19;4.77;;;3.00;;
11618;SDS011;5865;48.776;9.280;2024-03-23T03:37:47;3.30;;;2.53;;
11618;SDS011;5865;48.776;9.280;2024-03-23T03:40:13;3.57;;;2.60;;
11618;SDS011;5865;48.776;9.280;2024-03-23T03:42:41;3.60;;;2.90;;
11618;SDS011;5865;48.776;9.280;2024-03-23T03:45:07;5.03;;;2.90;;
11618;SDS011;5865;48.776;9.280;2024-03-23T03:47:34;2.70;;;2.40;;
11618;SDS011;5865;48.776;9.280;2024-03-23T03:50:02;3.00;;;2.50;;
11618;SDS011;5865;48.776;9.280;2024-03-23T03:52:29;4.00;;;2.50;;
11618;SDS011;5865;48.776;9.280;2024-03-23T03:55:01;3.40;;;2.40;;
11618;SDS011;5865;48.776;9.280;2024-03-23T03:57:28;4.93;;;2.50;;
11618;SDS011;5865;48.776;9.280;2024-03-23T03:59:54;3.03;;;2.30;;
11618;SDS011;5865;48.776;9.280;2024-03-23T04:02:21;3.90;;;2.67;;
11618;SDS011;5865;48.776;9.280;2024-03-23T04:04:47;3.60;;;2.60;;
11618;SDS011;5865;48.776;9.280;2024-03-23T04:07:16;3.87;;;2.67;;
11618;SDS011;5865;48.776;9.280;2024-03-23T04:09:43;3.70;;;2.37;;
11618;SDS011;5865;48.776;9.280;2024-03-23T04:12:10;4.53;;;2.67;;
11618;SDS011;5865;48.776;9.280;2024-03-23T04:14:36;4.17;;;2.87;;
11618;SDS011;5865;48.776;9.280;2024-03-23T04:17:04;4.10;;;2.47;;
11618;SDS011;5865;48.776;9.280;2024-03-23T04:19:30;3.63;;;2.50;;
11618;SDS011;5865;48.776;9.280;2024-03-23T04:21:57;3.37;;;2.63;;
11618;SDS011;5865;48.776;9.280;2024-03-23T04:24:25;3.40;;;2.50;;
11618;SDS011;5865;48.776;9.280;2024-03-23T04:26:51;4.23;;;2.23;;
11618;SDS011;5865;48.776;9.280;2024-03-23T04:29:18;3.33;;;2.30;;
11618;SDS011;5865;48.776;9.280;2024-03-23T04:31:46;3.40;;;2.27;;
11618;SDS011;5865;48.776;9.280;2024-03-23T04:34:12;2.70;;;2.37;;
11618;SDS011;5865;48.776;9.280;2024-03-23T04:36:39;2.87;;;2.30;;
11618;SDS011;5865;48.776;9.280;2024-03-23T04:39:06;3.50;;;2.90;;
11618;SDS011;5865;48.776;9.280;2024-03-23T04:41:35;5.90;;;3.00;;
11618;SDS011;5865;48.776;9.280;2024-03-23T04:44:02;7.67;;;3.23;;
11618;SDS011;5865;48.776;9.280;2024-03-23T04:46:29;5.37;;;2.90;;
11618;SDS011;5865;48.776;9.280;2024-03-23T04:48:55;3.67;;;2.50;;
11618;SDS011;5865;48.776;9.280;2024-03-23T04:51:23;4.10;;;2.30;;
11618;SDS011;5865;48.776;9.280;2024-03-23T04:53:51;3.27;;;2.30;;
11618;SDS011;5865;48.776;9.280;2024-03-23T04:56:18;3.00;;;2.57;;
11618;SDS011;5865;48.776;9.280;2024-03-23T04:58:47;4.23;;;2.43;;
11618;SDS011;5865;48.776;9.280;2024-03-23T05:01:13;6.10;;;3.50;;
11618;SDS011;5865;48.776;9.280;2024-03-23T05:03:40;6.87;;;4.10;;
11618;SDS011;5865;48.776;9.280;2024-03-23T05:06:06;5.60;;;4.40;;
11618;SDS011;5865;48.776;9.280;2024-03-23T05:08:33;5.40;;;4.53;;
11618;SDS011;5865;48.776;9.280;2024-03-23T05:10:59;6.60;;;5.13;;
11618;SDS011;5865;48.776;9.280;2024-03-23T05:13:27;8.57;;;6.17;;
11618;SDS011;5865;48.776;9.280;2024-03-23T05:15:55;9.33;;;6.60;;
11618;SDS011;5865;48.776;9.280;2024-03-23T05:18:22;9.83;;;6.90;;
11618;SDS011;5865;48.776;9.280;2024-03-23T05:20:55;10.37;;;7.40;;
11618;SDS011;5865;48.776;9.280;2024-03-23T05:23:21;10.30;;;7.50;;
11618;SDS011;5865;48.776;9.280;2024-03-23T05:25:48;10.93;;;7.93;;
11618;SDS011;5865;48.776;9.280;2024-03-23T05:28:14;12.17;;;9.00;;
11618;SDS011;5865;48.776;9.280;2024-03-23T05:30:42;14.77;;;9.13;;
11618;SDS011;5865;48.776;9.280;2024-03-23T05:33:09;13.80;;;9.63;;
11618;SDS011;5865;48.776;9.280;2024-03-23T05:35:36;16.17;;;10.10;;
11618;SDS011;5865;48.776;9.280;2024-03-23T05:38:02;15.37;;;10.90;;
11618;SDS011;5865;48.776;9.280;2024-03-23T05:40:29;16.30;;;11.20;;
11618;SDS011;5865;48.776;9.280;2024-03-23T05:42:55;16.20;;;11.60;;
11618;SDS011;5865;48.776;9.280;2024-03-23T05:45:23;15.07;;;11.33;;
11618;SDS011;5865;48.776;9.280;2024-03-23T05:47:49;16.77;;;12.00;;
11618;SDS011;5865;48.776;9.280;2024-03-23T05:50:17;15.20;;;11.07;;
11618;SDS011;5865;48.776;9.280;2024-03-23T05:52:43;16.43;;;11.47;;
11618;SDS011;5865;48.776;9.280;2024-03-23T05:55:10;17.07;;;12.27;;
11618;SDS011;5865;48.776;9.280;2024-03-23T05:57:37;14.97;;;11.23;;
11618;SDS011;5865;48.776;9.280;2024-03-23T06:00:05;13.80;;;10.43;;
11618;SDS011;5865;48.776;9.280;2024-03-23T06:02:37;11.43;;;8.53;;
11618;SDS011;5865;48.776;9.280;2024-03-23T06:05:04;10.70;;;8.00;;
11618;SDS011;5865;48.776;9.280;2024-03-23T06:07:32;8.87;;;6.40;;
11618;SDS011;5865;48.776;9.280;2024-03-23T06:09:59;7.80;;;6.00;;
11618;SDS011;5865;48.776;9.280;2024-03-23T06:12:25;5.43;;;4.43;;
11618;SDS011;5865;48.776;9.280;2024-03-23T06:14:52;4.13;;;3.30;;
11618;SDS011;5865;48.776;9.280;2024-03-23T06:17:18;4.13;;;3.33;;
11618;SDS011;5865;48.776;9.280;2024-03-23T06:19:46;5.30;;;3.47;;
11618;SDS011;5865;48.776;9.280;2024-03-23T06:22:12;3.60;;;3.23;;
11618;SDS011;5865;48.776;9.280;2024-03-23T06:24:42;4.73;;;3.20;;
11618;SDS011;5865;48.776;9.280;2024-03-23T06:27:09;5.00;;;2.80;;
11618;SDS011;5865;48.776;9.280;2024-03-23T06:29:36;2.90;;;2.40;;
11618;SDS011;5865;48.776;9.280;2024-03-23T06:32:02;3.80;;;2.60;;
11618;SDS011;5865;48.776;9.280;2024-03-23T06:34:29;3.17;;;2.37;;
11618;SDS011;5865;48.776;9.280;2024-03-23T06:36:55;3.60;;;2.10;;
11618;SDS011;5865;48.776;9.280;2024-03-23T06:39:23;2.30;;;1.97;;
11618;SDS011;5865;48.776;9.280;2024-03-23T06:41:52;2.20;;;1.77;;
11618;SDS011;5865;48.776;9.280;2024-03-23T06:44:20;4.37;;;1.80;;
11618;SDS011;5865;48.776;9.280;2024-03-23T06:46:46;3.10;;;1.87;;
11618;SDS011;5865;48.776;9.280;2024-03-23T06:49:14;1.67;;;1.20;;
11618;SDS011;5865;48.776;9.280;2024-03-23T06:51:41;1.87;;;1.50;;
11618;SDS011;5865;48.776;9.280;2024-03-23T06:54:08;1.90;;;1.10;;
11618;SDS011;5865;48.776;9.280;2024-03-23T06:56:34;2.20;;;1.20;;
11618;SDS011;5865;48.776;9.280;2024-03-23T06:59:02;1.40;;;1.27;;
11618;SDS011;5865;48.776;9.280;2024-03-23T07:01:29;1.27;;;1.00;;
11618;SDS011;5865;48.776;9.280;2024-03-23T07:03:56;1.30;;;1.10;;
11618;SDS011;5865;48.776;9.280;2024-03-23T07:06:22;1.00;;;0.90;;
11618;SDS011;5865;48.776;9.280;2024-03-23T07:08:49;0.80;;;0.80;;
11618;SDS011;5865;48.776;9.280;2024-03-23T07:11:18;1.53;;;0.80;;
11618;SDS011;5865;48.776;9.280;2024-03-23T07:13:46;1.83;;;0.83;;
11618;SDS011;5865;48.776;9.280;2024-03-23T07:16:14;0.50;;;0.50;;
11618;SDS011;5865;48.776;9.280;2024-03-23T07:18:41;0.70;;;0.70;;
11618;SDS011;5865;48.776;9.280;2024-03-23T07:21:07;1.77;;;0.67;;
11618;SDS011;5865;48.776;9.280;2024-03-23T07:23:34;0.63;;;0.63;;
11618;SDS011;5865;48.776;9.280;2024-03-23T07:26:01;0.60;;;0.60;;
11618;SDS011;5865;48.776;9.280;2024-03-23T07:28:29;0.60;;;0.60;;
11618;SDS011;5865;48.776;9.280;2024-03-23T07:31:03;0.77;;;0.60;;
11618;SDS011;5865;48.776;9.280;2024-03-23T07:33:32;0.50;;;0.50;;
11618;SDS011;5865;48.776;9.280;2024-03-23T07:35:58;0.40;;;0.40;;
11618;SDS011;5865;48.776;9.280;2024-03-23T07:38:26;1.57;;;0.50;;
11618;SDS011;5865;48.776;9.280;2024-03-23T07:41:01;0.60;;;0.60;;
11618;SDS011;5865;48.776;9.280;2024-03-23T07:43:29;0.60;;;0.50;;
11618;SDS011;5865;48.776;9.280;2024-03-23T07:45:55;0.70;;;0.70;;
11618;SDS011;5865;48.776;9.280;2024-03-23T07:48:22;0.40;;;0.40;;
11618;SDS011;5865;48.776;9.280;2024-03-23T07:50:57;0.70;;;0.70;;
11618;SDS011;5865;48.776;9.280;2024-03-23T07:53:24;0.60;;;0.60;;
11618;SDS011;5865;48.776;9.280;2024-03-23T07:55:54;0.67;;;0.60;;
11618;SDS011;5865;48.776;9.280;2024-03-23T07:58:24;1.23;;;0.50;;
11618;SDS011;5865;48.776;9.280;2024-03-23T08:00:51;0.60;;;0.50;;
11618;SDS011;5865;48.776;9.280;2024-03-23T08:03:19;0.50;;;0.50;;
11618;SDS011;5865;48.776;9.280;2024-03-23T08:05:45;0.97;;;0.70;;
11618;SDS011;5865;48.776;9.280;2024-03-23T08:08:14;1.40;;;1.27;;
11618;SDS011;5865;48.776;9.280;2024-03-23T08:10:47;1.20;;;1.10;;
11618;SDS011;5865;48.776;9.280;2024-03-23T08:13:14;2.10;;;1.10;;
11618;SDS011;5865;48.776;9.280;2024-03-23T08:15:40;1.00;;;1.00;;
11618;SDS011;5865;48.776;9.280;2024-03-23T08:18:08;1.30;;;1.20;;
11618;SDS011;5865;48.776;9.280;2024-03-23T08:20:35;2.13;;;1.83;;
11618;SDS011;5865;48.776;9.280;2024-03-23T08:23:01;2.17;;;1.10;;
11618;SDS011;5865;48.776;9.280;2024-03-23T08:25:31;8.47;;;6.30;;
11618;SDS011;5865;48.776;9.280;2024-03-23T08:27:58;0.77;;;0.77;;
11618;SDS011;5865;48.776;9.280;2024-03-23T08:30:25;0.90;;;0.90;;
11618;SDS011;5865;48.776;9.280;2024-03-23T08:32:51;1.47;;;0.90;;
11618;SDS011;5865;48.776;9.280;2024-03-23T08:35:19;1.20;;;1.10;;
11618;SDS011;5865;48.776;9.280;2024-03-23T08:37:45;1.00;;;0.83;;
11618;SDS011;5865;48.776;9.280;2024-03-23T08:40:13;0.80;;;0.80;;
11618;SDS011;5865;48.776;9.280;2024-03-23T08:42:40;1.50;;;0.90;;
11618;SDS011;5865;48.776;9.280;2024-03-23T08:45:08;2.50;;;0.83;;
11618;SDS011;5865;48.776;9.280;2024-03-23T08:47:34;1.43;;;0.70;;
11618;SDS011;5865;48.776;9.280;2024-03-23T08:50:02;0.80;;;0.80;;
11618;SDS011;5865;48.776;9.280;2024-03-23T08:52:28;1.03;;;0.90;;
11618;SDS011;5865;48.776;9.280;2024-03-23T08:54:56;2.47;;;1.90;;
11618;SDS011;5865;48.776;9.280;2024-03-23T08:57:23;1.43;;;1.10;;
11618;SDS011;5865;48.776;9.280;2024-03-23T08:59:54;1.93;;;1.43;;
11618;SDS011;5865;48.776;9.280;2024-03-23T09:02:20;3.70;;;1.80;;
11618;SDS011;5865;48.776;9.280;2024-03-23T09:04:47;3.00;;;1.20;;
11618;SDS011;5865;48.776;9.280;2024-03-23T09:07:13;2.83;;;1.70;;
11618;SDS011;5865;48.776;9.280;2024-03-23T09:09:41;4.10;;;2.30;;
11618;SDS011;5865;48.776;9.280;2024-03-23T09:12:07;3.70;;;2.50;;
11618;SDS011;5865;48.776;9.280;2024-03-23T09:14:34;7.30;;;4.10;;
11618;SDS011;5865;48.776;9.280;2024-03-23T09:17:02;5.30;;;2.53;;
11618;SDS011;5865;48.776;9.280;2024-03-23T09:19:30;3.50;;;2.27;;
11618;SDS011;5865;48.776;9.280;2024-03-23T09:21:56;5.10;;;2.43;;
11618;SDS011;5865;48.776;9.280;2024-03-23T09:24:24;12.77;;;7.30;;
11618;SDS011;5865;48.776;9.280;2024-03-23T09:26:51;4.10;;;2.00;;
11618;SDS011;5865;48.776;9.280;2024-03-23T09:29:19;4.43;;;2.40;;
11618;SDS011;5865;48.776;9.280;2024-03-23T09:31:48;6.53;;;3.40;;
11618;SDS011;5865;48.776;9.280;2024-03-23T09:34:17;6.93;;;2.60;;
11618;SDS011;5865;48.776;9.280;2024-03-23T09:36:46;5.87;;;3.20;;
11618;SDS011;5865;48.776;9.280;2024-03-23T09:39:17;7.57;;;4.17;;
11618;SDS011;5865;48.776;9.280;2024-03-23T09:41:48;5.30;;;2.60;;
11618;SDS011;5865;48.776;9.280;2024-03-23T09:44:18;5.43;;;2.90;;
11618;SDS011;5865;48.776;9.280;2024-03-23T09:46:47;5.20;;;2.47;;
11618;SDS011;5865;48.776;9.280;2024-03-23T09:49:20;4.17;;;2.20;;
11618;SDS011;5865;48.776;9.280;2024-03-23T09:51:47;5.50;;;2.20;;
11618;SDS011;5865;48.776;9.280;2024-03-23T09:54:22;5.30;;;2.00;;
11618;SDS011;5865;48.776;9.280;2024-03-23T09:56:51;5.43;;;2.00;;
11618;SDS011;5865;48.776;9.280;2024-03-23T09:59:18;3.80;;;1.83;;
11618;SDS011;5865;48.776;9.280;2024-03-23T10:01:51;4.17;;;2.10;;
11618;SDS011;5865;48.776;9.280;2024-03-23T10:04:39;4.37;;;2.40;;
11618;SDS011;5865;48.776;9.280;2024-03-23T10:07:15;4.83;;;2.00;;
11618;SDS011;5865;48.776;9.280;2024-03-23T10:09:44;5.40;;;1.87;;
11618;SDS011;5865;48.776;9.280;2024-03-23T10:12:11;6.07;;;2.40;;
11618;SDS011;5865;48.776;9.280;2024-03-23T10:14:39;5.47;;;2.20;;
11618;SDS011;5865;48.776;9.280;2024-03-23T10:17:12;6.17;;;2.70;;
11618;SDS011;5865;48.776;9.280;2024-03-23T10:19:44;3.87;;;2.27;;
11618;SDS011;5865;48.776;9.280;2024-03-23T10:22:13;6.60;;;1.97;;
11618;SDS011;5865;48.776;9.280;2024-03-23T10:24:54;4.70;;;2.03;;
11618;SDS011;5865;48.776;9.280;2024-03-23T10:27:55;5.47;;;2.17;;
11618;SDS011;5865;48.776;9.280;2024-03-23T10:30:34;5.67;;;2.67;;
11618;SDS011;5865;48.776;9.280;2024-03-23T10:33:06;5.07;;;2.20;;
11618;SDS011;5865;48.776;9.280;2024-03-23T10:35:37;4.83;;;2.40;;
11618;SDS011;5865;48.776;9.280;2024-03-23T10:38:04;2.70;;;2.00;;
11618;SDS011;5865;48.776;9.280;2024-03-23T10:40:33;4.63;;;2.20;;
11618;SDS011;5865;48.776;9.280;2024-03-23T10:43:09;4.50;;;2.20;;
11618;SDS011;5865;48.776;9.280;2024-03-23T10:45:50;4.63;;;2.00;;
11618;SDS011;5865;48.776;9.280;2024-03-23T10:48:19;4.77;;;2.00;;
11618;SDS011;5865;48.776;9.280;2024-03-23T10:53:32;6.73;;;2.33;;
11618;SDS011;5865;48.776;9.280;2024-03-23T10:55:59;3.93;;;2.10;;
11618;SDS011;5865;48.776;9.280;2024-03-23T10:58:27;5.10;;;2.33;;
11618;SDS011;5865;48.776;9.280;2024-03-23T11:00:54;7.43;;;3.40;;
11618;SDS011;5865;48.776;9.280;2024-03-23T11:03:33;3.87;;;2.40;;
11618;SDS011;5865;48.776;9.280;2024-03-23T11:06:02;4.63;;;2.20;;
11618;SDS011;5865;48.776;9.280;2024-03-23T11:08:36;5.17;;;3.33;;
11618;SDS011;5865;48.776;9.280;2024-03-23T11:11:13;5.73;;;2.70;;
11618;SDS011;5865;48.776;9.280;2024-03-23T11:14:06;6.60;;;3.13;;
11618;SDS011;5865;48.776;9.280;2024-03-23T11:17:08;8.53;;;3.20;;
11618;SDS011;5865;48.776;9.280;2024-03-23T11:19:40;3.20;;;1.80;;
11618;SDS011;5865;48.776;9.280;2024-03-23T11:22:43;3.50;;;2.10;;
11618;SDS011;5865;48.776;9.280;2024-03-23T11:29:13;3.80;;;2.00;;
11618;SDS011;5865;48.776;9.280;2024-03-23T11:31:48;3.40;;;2.17;;
11618;SDS011;5865;48.776;9.280;2024-03-23T11:34:20;2.87;;;1.90;;
11618;SDS011;5865;48.776;9.280;2024-03-23T11:36:50;2.17;;;1.80;;
11618;SDS011;5865;48.776;9.280;2024-03-23T11:39:19;1.97;;;1.70;;
11618;SDS011;5865;48.776;9.280;2024-03-23T11:41:53;2.57;;;2.20;;
11618;SDS011;5865;48.776;9.280;2024-03-23T11:44:26;2.63;;;2.13;;
11618;SDS011;5865;48.776;9.280;2024-03-23T11:46:59;2.37;;;2.03;;
11618;SDS011;5865;48.776;9.280;2024-03-23T11:49:33;2.63;;;2.43;;
11618;SDS011;5865;48.776;9.280;2024-03-23T11:52:06;2.83;;;2.00;;
11618;SDS011;5865;48.776;9.280;2024-03-23T11:54:35;4.23;;;2.30;;
11618;SDS011;5865;48.776;9.280;2024-03-23T11:57:07;5.67;;;2.50;;
11618;SDS011;5865;48.776;9.280;2024-03-23T11:59:36;2.60;;;1.97;;
11618;SDS011;5865;48.776;9.280;2024-03-23T12:02:07;4.87;;;2.10;;
11618;SDS011;5865;48.776;9.280;2024-03-23T12:04:36;6.07;;;1.80;;
11618;SDS011;5865;48.776;9.280;2024-03-23T12:07:11;4.83;;;2.13;;
11618;SDS011;5865;48.776;9.280;2024-03-23T12:09:41;2.90;;;1.60;;
11618;SDS011;5865;48.776;9.280;2024-03-23T12:12:13;5.00;;;1.60;;
11618;SDS011;5865;48.776;9.280;2024-03-23T12:14:42;4.90;;;1.33;;
11618;SDS011;5865;48.776;9.280;2024-03-23T12:17:16;2.60;;;1.50;;
11618;SDS011;5865;48.776;9.280;2024-03-23T12:19:45;3.63;;;1.27;;
11618;SDS011;5865;48.776;9.280;2024-03-23T12:22:12;3.97;;;1.13;;
11618;SDS011;5865;48.776;9.280;2024-03-23T12:24:39;6.17;;;3.00;;
11618;SDS011;5865;48.776;9.280;2024-03-23T12:27:13;5.07;;;1.97;;
11618;SDS011;5865;48.776;9.280;2024-03-23T12:30:00;2.83;;;1.40;;
11618;SDS011;5865;48.776;9.280;2024-03-23T12:32:29;3.17;;;1.33;;
11618;SDS011;5865;48.776;9.280;2024-03-23T12:34:58;6.27;;;2.27;;
11618;SDS011;5865;48.776;9.280;2024-03-23T12:37:29;5.37;;;1.53;;
11618;SDS011;5865;48.776;9.280;2024-03-23T12:39:56;4.33;;;2.33;;
11618;SDS011;5865;48.776;9.280;2024-03-23T12:42:23;7.03;;;1.80;;
11618;SDS011;5865;48.776;9.280;2024-03-23T12:44:52;4.67;;;1.70;;
11618;SDS011;5865;48.776;9.280;2024-03-23T12:47:27;3.20;;;1.40;;
11618;SDS011;5865;48.776;9.280;2024-03-23T12:49:55;2.90;;;1.50;;
11618;SDS011;5865;48.776;9.280;2024-03-23T12:52:23;6.03;;;1.77;;
11618;SDS011;5865;48.776;9.280;2024-03-23T12:54:53;4.40;;;1.80;;
11618;SDS011;5865;48.776;9.280;2024-03-23T12:57:27;7.60;;;2.33;;
11618;SDS011;5865;48.776;9.280;2024-03-23T12:59:53;6.60;;;1.60;;
11618;SDS011;5865;48.776;9.280;2024-03-23T13:02:25;6.07;;;1.60;;
11618;SDS011;5865;48.776;9.280;2024-03-23T13:04:53;5.80;;;2.00;;
11618;SDS011;5865;48.776;9.280;2024-03-23T13:07:21;3.87;;;1.80;;
11618;SDS011;5865;48.776;9.280;2024-03-23T13:09:49;5.27;;;2.13;;
11618;SDS011;5865;48.776;9.280;2024-03-23T13:12:18;9.23;;;2.30;;
11618;SDS011;5865;48.776;9.280;2024-03-23T13:14:45;3.67;;;1.40;;
11618;SDS011;5865;48.776;9.280;2024-03-23T13:17:12;4.53;;;1.60;;
11618;SDS011;5865;48.776;9.280;2024-03-23T13:19:39;7.00;;;1.70;;
11618;SDS011;5865;48.776;9.280;2024-03-23T13:22:10;4.63;;;1.60;;
11618;SDS011;5865;48.776;9.280;2024-03-23T13:24:36;6.37;;;1.97;;
11618;SDS011;5865;48.776;9.280;2024-03-23T13:27:04;4.83;;;2.03;;
11618;SDS011;5865;48.776;9.280;2024-03-23T13:29:33;5.60;;;2.30;;
11618;SDS011;5865;48.776;9.280;2024-03-23T13:32:01;6.40;;;2.23;;
11618;SDS011;5865;48.776;9.280;2024-03-23T13:34:27;7.20;;;2.13;;
11618;SDS011;5865;48.776;9.280;2024-03-23T13:37:05;6.10;;;2.90;;
11618;SDS011;5865;48.776;9.280;2024-03-23T13:39:34;8.47;;;2.40;;
11618;SDS011;5865;48.776;9.280;2024-03-23T13:42:01;4.60;;;1.53;;
11618;SDS011;5865;48.776;9.280;2024-03-23T13:44:45;4.60;;;1.90;;
11618;SDS011;5865;48.776;9.280;2024-03-23T13:47:22;4.80;;;1.80;;
11618;SDS011;5865;48.776;9.280;2024-03-23T13:49:49;4.60;;;1.70;;
11618;SDS011;5865;48.776;9.280;2024-03-23T13:52:17;3.40;;;1.85;;
11618;SDS011;5865;48.776;9.280;2024-03-23T13:54:57;3.27;;;1.13;;
11618;SDS011;5865;48.776;9.280;2024-03-23T13:57:27;3.13;;;1.20;;
11618;SDS011;5865;48.776;9.280;2024-03-23T13:59:54;4.50;;;1.20;;
11618;SDS011;5865;48.776;9.280;2024-03-23T14:02:24;2.33;;;1.33;;
11618;SDS011;5865;48.776;9.280;2024-03-23T14:04:51;5.97;;;1.50;;
11618;SDS011;5865;48.776;9.280;2024-03-23T14:07:22;5.03;;;1.58;;
11618;SDS011;5865;48.776;9.280;2024-03-23T14:09:48;2.30;;;1.30;;
11618;SDS011;5865;48.776;9.280;2024-03-23T14:12:33;3.00;;;1.10;;
11618;SDS011;5865;48.776;9.280;2024-03-23T14:15:07;3.30;;;1.70;;
11618;SDS011;5865;48.776;9.280;2024-03-23T14:17:35;3.23;;;1.60;;
11618;SDS011;5865;48.776;9.280;2024-03-23T14:20:02;2.53;;;1.33;;
11618;SDS011;5865;48.776;9.280;2024-03-23T14:22:30;3.13;;;1.40;;
11618;SDS011;5865;48.776;9.280;2024-03-23T14:24:57;2.77;;;1.20;;
11618;SDS011;5865;48.776;9.280;2024-03-23T14:27:37;5.37;;;2.10;;
11618;SDS011;5865;48.776;9.280;2024-03-23T14:37:19;2.90;;;1.50;;
11618;SDS011;5865;48.776;9.280;2024-03-23T14:40:37;2.30;;;1.17;;
11618;SDS011;5865;48.776;9.280;2024-03-23T14:44:07;1.77;;;0.90;;
11618;SDS011;5865;48.776;9.280;2024-03-23T14:47:06;1.63;;;1.13;;
11618;SDS011;5865;48.776;9.280;2024-03-23T14:49:52;3.17;;;1.50;;
11618;SDS011;5865;48.776;9.280;2024-03-23T14:52:33;1.03;;;0.90;;
11618;SDS011;5865;48.776;9.280;2024-03-23T14:55:20;1.30;;;1.10;;
11618;SDS011;5865;48.776;9.280;2024-03-23T14:57:50;2.07;;;1.50;;
11618;SDS011;5865;48.776;9.280;2024-03-23T15:00:25;1.97;;;1.10;;
11618;SDS011;5865;48.776;9.280;2024-03-23T15:03:00;2.27;;;1.10;;
11618;SDS011;5865;48.776;9.280;2024-03-23T15:05:36;2.93;;;1.73;;
11618;SDS011;5865;48.776;9.280;2024-03-23T15:08:06;3.97;;;1.00;;
11618;SDS011;5865;48.776;9.280;2024-03-23T15:10:37;2.30;;;1.30;;
11618;SDS011;5865;48.776;9.280;2024-03-23T15:13:05;3.23;;;0.90;;
11618;SDS011;5865;48.776;9.280;2024-03-23T15:15:39;1.67;;;1.10;;
11618;SDS011;5865;48.776;9.280;2024-03-23T15:18:09;3.23;;;1.10;;
11618;SDS011;5865;48.776;9.280;2024-03-23T15:20:38;4.00;;;2.23;;
11618;SDS011;5865;48.776;9.280;2024-03-23T15:23:17;3.43;;;2.13;;
11618;SDS011;5865;48.776;9.280;2024-03-23T15:25:44;3.37;;;1.67;;
11618;SDS011;5865;48.776;9.280;2024-03-23T15:28:13;1.87;;;1.00;;
11618;SDS011;5865;48.776;9.280;2024-03-23T15:30:41;2.10;;;1.00;;
11618;SDS011;5865;48.776;9.280;2024-03-23T15:33:10;1.23;;;0.90;;
11618;SDS011;5865;48.776;9.280;2024-03-23T15:35:39;2.57;;;1.20;;
11618;SDS011;5865;48.776;9.280;2024-03-23T15:38:06;1.67;;;0.97;;
11618;SDS011;5865;48.776;9.280;2024-03-23T15:40:33;3.40;;;1.00;;
11618;SDS011;5865;48.776;9.280;2024-03-23T15:43:03;3.27;;;1.33;;
11618;SDS011;5865;48.776;9.280;2024-03-23T15:45:29;2.63;;;1.20;;
11618;SDS011;5865;48.776;9.280;2024-03-23T15:47:59;2.90;;;1.17;;
11618;SDS011;5865;48.776;9.280;2024-03-23T15:50:25;1.20;;;1.00;;
11618;SDS011;5865;48.776;9.280;2024-03-23T15:52:53;3.43;;;0.83;;
11618;SDS011;5865;48.776;9.280;2024-03-23T15:55:26;1.27;;;0.90;;
11618;SDS011;5865;48.776;9.280;2024-03-23T15:57:53;4.33;;;0.90;;
11618;SDS011;5865;48.776;9.280;2024-03-23T16:00:20;2.47;;;1.40;;
11618;SDS011;5865;48.776;9.280;2024-03-23T16:02:47;1.83;;;0.90;;
11618;SDS011;5865;48.776;9.280;2024-03-23T16:05:15;1.47;;;0.90;;
11618;SDS011;5865;48.776;9.280;2024-03-23T16:07:46;1.90;;;0.90;;
11618;SDS011;5865;48.776;9.280;2024-03-23T16:10:13;2.43;;;1.10;;
11618;SDS011;5865;48.776;9.280;2024-03-23T16:12:46;2.17;;;0.93;;
11618;SDS011;5865;48.776;9.280;2024-03-23T16:15:12;2.60;;;1.03;;
11618;SDS011;5865;48.776;9.280;2024-03-23T16:17:41;2.70;;;1.00;;
11618;SDS011;5865;48.776;9.280;2024-03-23T16:20:08;2.63;;;1.00;;